createdAt,value
2019-06-08T00:02:22.828Z,16.97
2019-06-08T00:04:55.274Z,10.70
2019-06-08T00:07:27.726Z,9.60
2019-06-08T00:09:59.987Z,13.35
2019-06-08T00:12:33.517Z,14.23
2019-06-08T00:15:07.029Z,11.30
2019-06-08T00:17:39.932Z,15.00
2019-06-08T00:20:13.469Z,16.93
2019-06-08T00:22:46.061Z,19.17
2019-06-08T00:25:19.172Z,21.27
2019-06-08T00:27:51.877Z,11.78
2019-06-08T00:30:24.611Z,14.80
2019-06-08T00:32:57.835Z,14.58
2019-06-08T00:35:31.766Z,14.38
2019-06-08T00:38:03.742Z,14.78
2019-06-08T00:40:36.330Z,14.05
2019-06-08T00:43:09.340Z,13.38
2019-06-08T00:45:42.528Z,17.85
2019-06-08T00:48:16.642Z,21.40
2019-06-08T00:50:49.694Z,14.30
2019-06-08T00:53:23.214Z,18.57
2019-06-08T00:55:55.830Z,12.28
2019-06-08T00:58:28.595Z,18.02
2019-06-08T01:01:01.374Z,17.00
2019-06-08T01:03:41.736Z,16.65
2019-06-08T01:06:14.249Z,11.93
2019-06-08T01:08:47.062Z,16.90
2019-06-08T01:11:20.828Z,17.25
2019-06-08T01:13:52.545Z,12.43
2019-06-08T01:16:25.082Z,16.85
2019-06-08T01:18:58.118Z,14.38
2019-06-08T01:21:30.780Z,13.80
2019-06-08T01:24:04.409Z,9.93
2019-06-08T01:26:38.335Z,8.68
2019-06-08T01:29:11.291Z,8.63
2019-06-08T01:31:43.207Z,10.08
2019-06-08T01:34:15.772Z,10.20
2019-06-08T01:36:48.344Z,12.18
2019-06-08T01:39:21.164Z,11.08
2019-06-08T01:41:53.837Z,10.78
2019-06-08T01:44:27.952Z,14.75
2019-06-08T01:47:00.444Z,13.62
2019-06-08T01:49:33.083Z,15.08
2019-06-08T01:52:07.706Z,13.62
2019-06-08T01:54:39.626Z,10.93
2019-06-08T01:57:12.984Z,12.25
2019-06-08T01:59:46.058Z,13.83
2019-06-08T02:02:20.271Z,17.17
2019-06-08T02:04:55.633Z,13.00
2019-06-08T02:07:45.974Z,14.90
2019-06-08T02:10:19.494Z,18.37
2019-06-08T02:12:54.449Z,17.48
2019-06-08T02:15:27.200Z,17.87
2019-06-08T02:17:59.069Z,18.55
2019-06-08T02:20:33.036Z,18.70
2019-06-08T02:23:13.301Z,21.82
2019-06-08T02:25:45.186Z,20.08
2019-06-08T02:28:18.359Z,23.02
2019-06-08T02:30:52.219Z,21.42
2019-06-08T02:33:25.672Z,22.00
2019-06-08T02:35:57.965Z,19.80
2019-06-08T02:38:31.578Z,19.85
2019-06-08T02:41:03.873Z,16.95
2019-06-08T02:43:38.262Z,17.98
2019-06-08T02:46:11.461Z,15.78
2019-06-08T02:49:04.183Z,15.98
2019-06-08T02:51:33.796Z,16.10
2019-06-08T02:54:05.870Z,15.25
2019-06-08T02:56:42.883Z,16.50
2019-06-08T02:59:16.858Z,15.72
2019-06-08T03:01:50.050Z,15.53
2019-06-08T03:04:23.762Z,17.67
2019-06-08T03:06:57.638Z,16.55
2019-06-08T03:09:31.118Z,20.20
2019-06-08T03:12:07.051Z,18.45
2019-06-08T03:14:49.551Z,16.77
2019-06-08T03:17:23.254Z,15.65
2019-06-08T03:20:02.767Z,16.77
2019-06-08T03:22:37.152Z,15.78
2019-06-08T03:25:08.953Z,16.10
2019-06-08T03:27:54.016Z,14.38
2019-06-08T03:30:37.835Z,15.63
2019-06-08T03:35:52.622Z,16.82
2019-06-08T03:38:24.334Z,19.73
2019-06-08T03:40:58.506Z,23.85
2019-06-08T03:43:32.471Z,21.73
2019-06-08T03:46:06.999Z,21.37
2019-06-08T03:48:41.648Z,20.00
2019-06-08T03:51:15.914Z,20.35
2019-06-08T03:53:48.895Z,14.93
2019-06-08T03:56:22.755Z,15.32
2019-06-08T03:58:57.472Z,14.50
2019-06-08T04:01:30.384Z,13.45
2019-06-08T04:04:03.346Z,12.70
2019-06-08T04:06:37.679Z,11.55
2019-06-08T04:09:13.259Z,9.63
2019-06-08T04:11:52.617Z,10.85
2019-06-08T04:14:27.517Z,9.98
2019-06-08T04:17:06.028Z,9.53
2019-06-08T04:19:59.812Z,9.25
2019-06-08T04:22:23.387Z,7.55
2019-06-08T04:27:48.632Z,7.58
2019-06-08T04:30:21.824Z,7.90
2019-06-08T04:32:59.955Z,8.75
2019-06-08T04:35:34.973Z,7.92
2019-06-08T04:38:08.619Z,7.08
2019-06-08T04:40:46.020Z,8.98
2019-06-08T04:43:25.857Z,7.55
2019-06-08T04:46:05.557Z,13.48
2019-06-08T04:48:40.511Z,10.68
2019-06-08T04:51:13.853Z,12.20
2019-06-08T04:53:49.510Z,15.18
2019-06-08T04:56:23.016Z,15.55
2019-06-08T04:58:55.119Z,16.70
2019-06-08T05:01:27.877Z,15.80
2019-06-08T05:04:01.734Z,15.60
2019-06-08T05:06:34.797Z,17.12
2019-06-08T05:09:10.668Z,17.25
2019-06-08T05:11:45.202Z,17.62
2019-06-08T05:14:17.564Z,15.25
2019-06-08T05:16:50.621Z,14.07
2019-06-08T05:19:30.687Z,14.03
2019-06-08T05:22:07.066Z,14.13
2019-06-08T05:24:41.298Z,12.73
2019-06-08T05:27:15.701Z,12.65
2019-06-08T05:35:30.284Z,11.60
2019-06-08T05:38:03.170Z,12.50
2019-06-08T05:40:36.860Z,13.10
2019-06-08T05:43:09.268Z,12.33
2019-06-08T05:45:41.997Z,13.20
2019-06-08T05:48:15.995Z,12.75
2019-06-08T05:51:00.391Z,14.25
2019-06-08T05:53:22.461Z,15.15
2019-06-08T05:55:55.163Z,15.30
2019-06-08T05:58:28.912Z,16.25
2019-06-08T06:01:03.194Z,15.70
2019-06-08T06:03:46.669Z,16.23
2019-06-08T06:06:20.693Z,15.53
2019-06-08T06:08:54.975Z,16.37
2019-06-08T06:11:28.478Z,16.23
2019-06-08T06:14:03.670Z,17.77
2019-06-08T06:16:39.053Z,18.60
2019-06-08T06:19:11.876Z,19.50
2019-06-08T06:21:45.106Z,17.12
2019-06-08T06:24:25.468Z,16.45
2019-06-08T06:26:59.480Z,17.12
2019-06-08T06:29:32.649Z,17.52
2019-06-08T06:32:06.520Z,14.38
2019-06-08T06:34:46.295Z,15.28
2019-06-08T06:37:22.238Z,14.23
2019-06-08T06:39:55.361Z,15.53
2019-06-08T06:42:34.224Z,15.88
2019-06-08T06:45:09.381Z,15.63
2019-06-08T06:47:42.233Z,15.55
2019-06-08T06:50:15.257Z,16.90
2019-06-08T06:52:48.946Z,20.08
2019-06-08T06:55:28.173Z,17.37
2019-06-08T06:58:00.634Z,16.65
2019-06-08T07:00:35.170Z,17.45
2019-06-08T07:03:11.822Z,16.90
2019-06-08T07:05:52.260Z,17.23
2019-06-08T07:08:24.599Z,16.82
2019-06-08T07:10:57.046Z,17.35
2019-06-08T07:13:37.230Z,19.85
2019-06-08T07:16:21.161Z,19.80
2019-06-08T07:18:55.865Z,17.57
2019-06-08T07:21:41.267Z,19.12
2019-06-08T07:24:04.926Z,21.85
2019-06-08T07:26:50.349Z,21.57
2019-06-08T07:29:25.795Z,20.48
2019-06-08T07:34:50.442Z,20.93
2019-06-08T07:37:27.453Z,19.82
2019-06-08T07:40:04.517Z,18.32
2019-06-08T07:42:36.575Z,21.05
2019-06-08T07:45:10.123Z,20.88
2019-06-08T07:47:44.537Z,20.60
2019-06-08T07:50:19.311Z,21.33
2019-06-08T07:52:56.876Z,24.90
2019-06-08T07:55:28.474Z,30.75
2019-06-08T07:58:00.930Z,27.93
2019-06-08T08:00:33.919Z,30.45
2019-06-08T08:03:06.850Z,33.20
2019-06-08T08:05:39.540Z,32.25
2019-06-08T08:08:15.196Z,28.47
2019-06-08T08:10:59.700Z,25.55
2019-06-08T08:13:36.680Z,24.77
2019-06-08T09:37:02.934Z,8.28
2019-06-08T09:39:34.370Z,9.20
2019-06-08T09:42:11.567Z,8.48
2019-06-08T09:44:44.446Z,7.85
2019-06-08T09:47:19.237Z,8.03
2019-06-08T09:49:53.776Z,7.70
2019-06-08T09:52:28.145Z,8.05
2019-06-08T09:55:06.932Z,8.13
2019-06-08T09:57:40.353Z,7.87
2019-06-08T10:00:18.229Z,7.30
2019-06-08T10:02:47.849Z,7.03
2019-06-08T10:05:20.002Z,7.33
2019-06-08T10:07:54.430Z,9.48
2019-06-08T10:10:34.982Z,7.72
2019-06-08T10:13:09.717Z,6.20
2019-06-08T10:15:41.285Z,7.65
2019-06-08T10:18:13.684Z,6.10
2019-06-08T10:20:48.218Z,6.75
2019-06-08T10:23:30.954Z,6.47
2019-06-08T10:25:59.577Z,6.42
2019-06-08T10:28:38.855Z,5.65
2019-06-08T10:31:10.128Z,5.95
2019-06-08T10:33:43.118Z,5.08
2019-06-08T10:36:18.129Z,5.30
2019-06-08T10:38:49.313Z,5.30
2019-06-08T10:41:22.897Z,4.62
2019-06-08T10:44:03.461Z,4.45
2019-06-08T10:46:40.272Z,4.10
2019-06-08T10:49:14.279Z,3.90
2019-06-08T10:51:43.685Z,4.25
2019-06-08T10:54:17.457Z,3.72
2019-06-08T10:56:49.788Z,3.25
2019-06-08T10:59:22.473Z,2.90
2019-06-08T11:01:55.435Z,2.87
2019-06-08T11:04:28.726Z,3.22
2019-06-08T11:07:06.979Z,3.22
2019-06-08T11:09:36.907Z,4.28
2019-06-08T11:12:14.590Z,3.80
2019-06-08T11:14:43.032Z,3.35
2019-06-08T11:17:17.905Z,3.42
2019-06-08T11:19:49.845Z,3.30
2019-06-08T11:22:22.679Z,3.33
2019-06-08T11:24:55.047Z,5.83
2019-06-08T11:27:28.504Z,4.85
2019-06-08T11:30:05.879Z,4.22
2019-06-08T11:32:38.334Z,4.08
2019-06-08T11:35:12.299Z,3.62
2019-06-08T11:37:44.284Z,3.62
2019-06-08T11:40:20.322Z,3.70
2019-06-08T11:42:51.058Z,3.77
2019-06-08T11:45:31.054Z,3.83
2019-06-08T11:48:04.538Z,4.28
2019-06-08T11:50:42.121Z,8.38
2019-06-08T11:53:20.722Z,5.83
2019-06-08T11:56:02.771Z,5.05
2019-06-08T11:58:38.585Z,4.60
2019-06-08T12:01:14.735Z,4.03
2019-06-08T12:03:52.065Z,4.25
2019-06-08T12:06:24.213Z,3.67
2019-06-08T12:08:57.432Z,3.20
2019-06-08T12:11:29.375Z,3.87
2019-06-08T12:14:00.972Z,3.90
2019-06-08T12:16:32.705Z,3.85
2019-06-08T12:19:15.125Z,4.35
2019-06-08T12:21:49.671Z,4.60
2019-06-08T12:24:19.093Z,4.90
2019-06-08T12:26:55.573Z,4.15
2019-06-08T12:29:28.217Z,4.37
2019-06-08T12:32:00.485Z,4.83
2019-06-08T12:34:34.144Z,4.30
2019-06-08T12:37:13.188Z,4.03
2019-06-08T12:39:41.182Z,4.50
2019-06-08T12:42:18.651Z,4.40
2019-06-08T12:44:47.625Z,4.30
2019-06-08T12:47:26.494Z,3.80
2019-06-08T12:49:58.483Z,4.75
2019-06-08T12:52:43.216Z,3.85
2019-06-08T12:55:25.347Z,4.12
2019-06-08T12:57:58.103Z,3.55
2019-06-08T13:00:30.753Z,4.35
2019-06-08T13:03:03.057Z,4.40
2019-06-08T13:05:37.933Z,4.75
2019-06-08T13:08:11.778Z,5.00
2019-06-08T13:10:47.937Z,5.62
2019-06-08T13:13:24.331Z,5.28
2019-06-08T13:15:54.690Z,4.58
2019-06-08T13:18:26.900Z,4.58
2019-06-08T13:21:13.145Z,4.80
2019-06-08T13:23:33.792Z,4.00
2019-06-08T13:26:15.152Z,4.12
2019-06-08T13:28:46.722Z,3.92
2019-06-08T13:31:22.624Z,3.75
2019-06-08T13:33:53.874Z,3.58
2019-06-08T13:36:29.312Z,3.80
2019-06-08T13:39:00.630Z,3.70
2019-06-08T13:41:34.370Z,3.65
2019-06-08T13:44:08.423Z,3.67
2019-06-08T13:46:47.855Z,3.33
2019-06-08T13:49:26.659Z,2.92
2019-06-08T13:51:54.008Z,3.98
2019-06-08T13:54:30.902Z,3.95
2019-06-08T13:56:59.946Z,4.05
2019-06-08T13:59:32.375Z,3.77
2019-06-08T14:02:04.655Z,3.70
2019-06-08T14:04:39.406Z,4.40
2019-06-08T14:07:10.621Z,3.80
2019-06-08T14:09:43.847Z,4.30
2019-06-08T14:12:19.800Z,4.53
2019-06-08T14:14:50.534Z,4.85
2019-06-08T14:17:27.065Z,3.72
2019-06-08T14:19:59.548Z,4.78
2019-06-08T14:22:32.471Z,4.75
2019-06-08T14:25:05.350Z,4.70
2019-06-08T14:27:38.149Z,4.62
2019-06-08T14:30:10.974Z,4.42
2019-06-08T14:32:44.347Z,4.42
2019-06-08T14:35:19.222Z,4.83
2019-06-08T14:37:50.983Z,5.70
2019-06-08T14:40:32.680Z,4.78
2019-06-08T14:43:05.109Z,4.47
2019-06-08T14:45:39.056Z,4.87
2019-06-08T14:48:11.987Z,4.22
2019-06-08T14:50:44.587Z,4.22
2019-06-08T14:53:18.867Z,4.15
2019-06-08T14:56:04.898Z,4.35
2019-06-08T14:58:34.611Z,4.42
2019-06-08T15:01:07.924Z,4.75
2019-06-08T15:03:39.477Z,4.50
2019-06-08T15:06:11.419Z,4.40
2019-06-08T15:08:44.521Z,4.20
2019-06-08T15:11:18.013Z,4.78
2019-06-08T15:13:50.266Z,4.40
2019-06-08T15:16:23.570Z,4.40
2019-06-08T15:19:00.139Z,5.08
2019-06-08T15:21:32.997Z,4.55
2019-06-08T15:24:04.176Z,4.40
2019-06-08T15:26:44.549Z,4.25
2019-06-08T15:29:10.517Z,3.92
2019-06-08T15:31:43.451Z,4.87
2019-06-08T15:34:17.803Z,4.22
2019-06-08T15:36:50.216Z,4.92
2019-06-08T15:39:23.484Z,4.20
2019-06-08T15:41:59.912Z,4.25
2019-06-08T15:44:32.453Z,4.45
2019-06-08T15:47:08.208Z,4.80
2019-06-08T15:49:39.840Z,5.03
2019-06-08T15:52:12.499Z,5.55
2019-06-08T15:54:45.484Z,6.00
2019-06-08T15:57:23.046Z,5.45
2019-06-08T15:59:59.690Z,6.90
2019-06-08T16:02:33.925Z,7.00
2019-06-08T16:05:09.935Z,7.30
2019-06-08T16:07:42.381Z,11.08
2019-06-08T16:10:17.270Z,7.22
2019-06-08T16:12:51.091Z,12.05
2019-06-08T16:18:14.731Z,11.63
2019-06-08T16:20:47.246Z,8.03
2019-06-08T16:23:25.386Z,8.05
2019-06-08T16:26:03.076Z,9.48
2019-06-08T16:28:36.856Z,8.65
2019-06-08T16:31:10.756Z,11.30
2019-06-08T16:33:45.890Z,9.43
2019-06-08T16:36:18.525Z,9.73
2019-06-08T16:38:52.966Z,10.00
2019-06-08T16:41:25.936Z,20.25
2019-06-08T16:43:58.575Z,16.82
2019-06-08T16:46:32.927Z,12.05
2019-06-08T16:49:05.404Z,14.18
2019-06-08T16:51:38.257Z,15.08
2019-06-08T16:54:17.250Z,15.95
2019-06-08T16:57:09.516Z,13.58
2019-06-08T16:59:32.354Z,22.13
2019-06-08T17:02:16.147Z,19.12
2019-06-08T17:04:46.353Z,8.58
2019-06-08T17:07:18.567Z,11.93
2019-06-08T17:09:51.314Z,11.80
2019-06-08T17:12:23.783Z,11.08
2019-06-08T17:14:56.835Z,10.85
2019-06-08T17:17:30.311Z,9.73
2019-06-08T17:22:54.386Z,10.55
2019-06-08T17:25:27.371Z,11.00
2019-06-08T17:28:00.924Z,11.40
2019-06-08T17:30:35.691Z,10.50
2019-06-08T17:33:07.824Z,8.35
2019-06-08T17:35:42.280Z,10.72
2019-06-08T17:38:14.842Z,9.00
2019-06-08T17:40:48.444Z,9.53
2019-06-08T17:43:24.294Z,6.97
2019-06-08T17:45:58.065Z,6.62
2019-06-08T17:48:32.359Z,7.45
2019-06-08T17:51:05.993Z,6.92
2019-06-08T17:53:39.244Z,6.55
2019-06-08T17:56:11.842Z,7.37
2019-06-08T17:58:44.823Z,7.40
2019-06-08T18:01:17.817Z,8.73
2019-06-08T18:03:50.389Z,7.95
2019-06-08T18:06:23.526Z,8.30
2019-06-08T18:08:58.975Z,6.08
2019-06-08T18:11:31.893Z,6.37
2019-06-08T18:14:04.761Z,5.92
2019-06-08T18:16:40.887Z,5.78
2019-06-08T18:19:14.074Z,6.30
2019-06-08T18:24:47.745Z,8.57
2019-06-08T18:27:19.421Z,6.35
2019-06-08T18:29:52.326Z,10.28
2019-06-08T18:32:27.200Z,9.43
2019-06-08T18:35:00.035Z,10.00
2019-06-08T18:37:33.313Z,9.83
2019-06-08T18:40:08.481Z,10.35
2019-06-08T18:42:42.634Z,8.40
2019-06-08T18:45:18.195Z,6.60
2019-06-08T18:47:50.796Z,8.80
2019-06-08T18:50:23.239Z,6.10
2019-06-08T18:52:57.842Z,9.18
2019-06-08T18:55:28.854Z,6.08
2019-06-08T18:58:20.050Z,6.37
2019-06-08T19:00:43.799Z,7.25
2019-06-08T19:03:17.146Z,9.15
2019-06-08T19:05:56.729Z,6.40
2019-06-08T19:08:30.155Z,5.92
2019-06-08T19:11:04.090Z,8.18
2019-06-08T19:13:37.881Z,9.25
2019-06-08T19:16:11.303Z,10.68
2019-06-08T19:18:52.127Z,11.20
2019-06-08T19:21:21.599Z,9.80
2019-06-08T19:23:55.162Z,7.50
2019-06-08T19:26:28.545Z,9.13
2019-06-08T19:29:01.514Z,10.50
2019-06-08T19:31:38.629Z,8.23
2019-06-08T19:34:28.217Z,9.20
2019-06-08T19:36:59.659Z,10.48
2019-06-08T19:39:32.147Z,10.03
2019-06-08T19:42:05.028Z,9.90
